sensor_id;sensor_type;location;lat;lon;timestamp;P1;durP1;ratioP1;P2;durP2;ratioP2
49826;SDS011;35715;51.570;6.036;2023-07-13T00:00:26;6.72;;;2.15;;
49826;SDS011;35715;51.570;6.036;2023-07-13T00:02:52;6.20;;;2.10;;
49826;SDS011;35715;51.570;6.036;2023-07-13T00:05:21;9.27;;;2.75;;
49826;SDS011;35715;51.570;6.036;2023-07-13T00:07:48;8.43;;;2.00;;
49826;SDS011;35715;51.570;6.036;2023-07-13T00:10:15;6.95;;;2.20;;
49826;SDS011;35715;51.570;6.036;2023-07-13T00:12:41;7.28;;;2.25;;
49826;SDS011;35715;51.570;6.036;2023-07-13T00:15:10;3.50;;;1.90;;
49826;SDS011;35715;51.570;6.036;2023-07-13T00:17:41;5.70;;;1.65;;
49826;SDS011;35715;51.570;6.036;2023-07-13T00:20:09;7.03;;;1.70;;
49826;SDS011;35715;51.570;6.036;2023-07-13T00:22:36;11.18;;;2.83;;
49826;SDS011;35715;51.570;6.036;2023-07-13T00:25:02;6.70;;;2.58;;
49826;SDS011;35715;51.570;6.036;2023-07-13T00:27:28;5.18;;;1.52;;
49826;SDS011;35715;51.570;6.036;2023-07-13T00:29:56;2.83;;;1.73;;
49826;SDS011;35715;51.570;6.036;2023-07-13T00:32:22;7.30;;;2.08;;
49826;SDS011;35715;51.570;6.036;2023-07-13T00:34:50;3.40;;;1.77;;
49826;SDS011;35715;51.570;6.036;2023-07-13T00:37:15;5.97;;;1.60;;
49826;SDS011;35715;51.570;6.036;2023-07-13T00:39:41;10.23;;;2.13;;
49826;SDS011;35715;51.570;6.036;2023-07-13T00:42:06;10.32;;;3.10;;
49826;SDS011;35715;51.570;6.036;2023-07-13T00:44:32;7.10;;;1.60;;
49826;SDS011;35715;51.570;6.036;2023-07-13T00:46:57;9.00;;;1.83;;
49826;SDS011;35715;51.570;6.036;2023-07-13T00:49:24;5.80;;;2.10;;
49826;SDS011;35715;51.570;6.036;2023-07-13T00:51:53;9.27;;;2.35;;
49826;SDS011;35715;51.570;6.036;2023-07-13T00:54:26;3.17;;;2.58;;
49826;SDS011;35715;51.570;6.036;2023-07-13T00:56:57;7.45;;;2.97;;
49826;SDS011;35715;51.570;6.036;2023-07-13T01:01:51;14.07;;;2.75;;
49826;SDS011;35715;51.570;6.036;2023-07-13T01:04:17;7.35;;;2.45;;
49826;SDS011;35715;51.570;6.036;2023-07-13T01:06:43;4.13;;;1.65;;
49826;SDS011;35715;51.570;6.036;2023-07-13T01:09:09;3.13;;;1.60;;
49826;SDS011;35715;51.570;6.036;2023-07-13T01:11:36;4.32;;;1.75;;
49826;SDS011;35715;51.570;6.036;2023-07-13T01:14:02;5.65;;;2.08;;
49826;SDS011;35715;51.570;6.036;2023-07-13T01:16:29;3.25;;;1.58;;
49826;SDS011;35715;51.570;6.036;2023-07-13T01:18:58;5.43;;;2.38;;
49826;SDS011;35715;51.570;6.036;2023-07-13T01:21:26;4.00;;;2.28;;
49826;SDS011;35715;51.570;6.036;2023-07-13T01:23:53;4.43;;;1.92;;
49826;SDS011;35715;51.570;6.036;2023-07-13T01:26:19;6.68;;;1.77;;
49826;SDS011;35715;51.570;6.036;2023-07-13T01:28:45;4.90;;;1.85;;
49826;SDS011;35715;51.570;6.036;2023-07-13T01:31:13;3.95;;;1.67;;
49826;SDS011;35715;51.570;6.036;2023-07-13T01:33:39;9.60;;;2.72;;
49826;SDS011;35715;51.570;6.036;2023-07-13T01:36:06;3.50;;;1.77;;
49826;SDS011;35715;51.570;6.036;2023-07-13T01:38:33;7.30;;;1.83;;
49826;SDS011;35715;51.570;6.036;2023-07-13T01:41:00;6.13;;;1.75;;
49826;SDS011;35715;51.570;6.036;2023-07-13T01:43:25;14.43;;;2.75;;
49826;SDS011;35715;51.570;6.036;2023-07-13T01:45:51;7.47;;;1.92;;
49826;SDS011;35715;51.570;6.036;2023-07-13T01:48:17;3.83;;;1.75;;
49826;SDS011;35715;51.570;6.036;2023-07-13T01:50:42;5.47;;;1.25;;
49826;SDS011;35715;51.570;6.036;2023-07-13T01:53:08;10.88;;;3.15;;
49826;SDS011;35715;51.570;6.036;2023-07-13T01:55:34;4.82;;;2.08;;
49826;SDS011;35715;51.570;6.036;2023-07-13T01:58:00;11.70;;;3.03;;
49826;SDS011;35715;51.570;6.036;2023-07-13T02:00:26;3.75;;;1.77;;
49826;SDS011;35715;51.570;6.036;2023-07-13T02:02:51;6.13;;;2.08;;
49826;SDS011;35715;51.570;6.036;2023-07-13T02:05:17;3.17;;;1.63;;
49826;SDS011;35715;51.570;6.036;2023-07-13T02:07:42;6.63;;;1.52;;
49826;SDS011;35715;51.570;6.036;2023-07-13T02:10:09;5.75;;;1.48;;
49826;SDS011;35715;51.570;6.036;2023-07-13T02:12:35;3.58;;;1.70;;
49826;SDS011;35715;51.570;6.036;2023-07-13T02:15:02;8.57;;;2.35;;
49826;SDS011;35715;51.570;6.036;2023-07-13T02:17:29;3.58;;;1.85;;
49826;SDS011;35715;51.570;6.036;2023-07-13T02:19:54;8.10;;;2.03;;
49826;SDS011;35715;51.570;6.036;2023-07-13T02:22:20;9.68;;;3.35;;
49826;SDS011;35715;51.570;6.036;2023-07-13T02:24:46;7.82;;;2.33;;
49826;SDS011;35715;51.570;6.036;2023-07-13T02:27:12;8.30;;;1.80;;
49826;SDS011;35715;51.570;6.036;2023-07-13T02:29:37;5.10;;;2.08;;
49826;SDS011;35715;51.570;6.036;2023-07-13T02:32:02;5.32;;;2.50;;
49826;SDS011;35715;51.570;6.036;2023-07-13T02:34:29;6.90;;;2.65;;
49826;SDS011;35715;51.570;6.036;2023-07-13T02:36:55;9.10;;;2.30;;
49826;SDS011;35715;51.570;6.036;2023-07-13T02:39:20;6.28;;;2.63;;
49826;SDS011;35715;51.570;6.036;2023-07-13T02:41:46;2.30;;;1.52;;
49826;SDS011;35715;51.570;6.036;2023-07-13T02:44:12;5.97;;;2.28;;
49826;SDS011;35715;51.570;6.036;2023-07-13T02:46:39;6.60;;;2.78;;
49826;SDS011;35715;51.570;6.036;2023-07-13T02:49:04;4.60;;;2.33;;
49826;SDS011;35715;51.570;6.036;2023-07-13T02:51:30;4.88;;;2.40;;
49826;SDS011;35715;51.570;6.036;2023-07-13T02:53:59;2.97;;;1.98;;
49826;SDS011;35715;51.570;6.036;2023-07-13T02:56:29;5.68;;;1.85;;
49826;SDS011;35715;51.570;6.036;2023-07-13T02:58:55;9.52;;;3.35;;
49826;SDS011;35715;51.570;6.036;2023-07-13T03:01:21;9.02;;;2.30;;
49826;SDS011;35715;51.570;6.036;2023-07-13T03:03:48;6.57;;;2.42;;
49826;SDS011;35715;51.570;6.036;2023-07-13T03:06:14;10.10;;;3.22;;
49826;SDS011;35715;51.570;6.036;2023-07-13T03:08:41;8.23;;;2.63;;
49826;SDS011;35715;51.570;6.036;2023-07-13T03:11:09;3.40;;;1.77;;
49826;SDS011;35715;51.570;6.036;2023-07-13T03:13:38;6.38;;;1.95;;
49826;SDS011;35715;51.570;6.036;2023-07-13T03:16:04;9.68;;;3.45;;
49826;SDS011;35715;51.570;6.036;2023-07-13T03:18:31;6.75;;;2.95;;
49826;SDS011;35715;51.570;6.036;2023-07-13T03:20:56;9.70;;;2.92;;
49826;SDS011;35715;51.570;6.036;2023-07-13T03:23:23;6.25;;;2.03;;
49826;SDS011;35715;51.570;6.036;2023-07-13T03:25:49;18.02;;;2.83;;
49826;SDS011;35715;51.570;6.036;2023-07-13T03:28:16;5.30;;;2.42;;
49826;SDS011;35715;51.570;6.036;2023-07-13T03:30:41;7.95;;;2.38;;
49826;SDS011;35715;51.570;6.036;2023-07-13T03:33:07;7.40;;;3.00;;
49826;SDS011;35715;51.570;6.036;2023-07-13T03:35:33;8.85;;;1.88;;
49826;SDS011;35715;51.570;6.036;2023-07-13T03:37:59;16.85;;;2.33;;
49826;SDS011;35715;51.570;6.036;2023-07-13T03:40:25;12.18;;;3.17;;
49826;SDS011;35715;51.570;6.036;2023-07-13T03:42:52;7.63;;;2.13;;
49826;SDS011;35715;51.570;6.036;2023-07-13T03:45:18;6.78;;;2.40;;
49826;SDS011;35715;51.570;6.036;2023-07-13T03:47:43;5.28;;;2.88;;
49826;SDS011;35715;51.570;6.036;2023-07-13T03:50:09;6.43;;;2.40;;
49826;SDS011;35715;51.570;6.036;2023-07-13T03:52:35;4.80;;;1.95;;
49826;SDS011;35715;51.570;6.036;2023-07-13T03:55:00;10.50;;;2.38;;
49826;SDS011;35715;51.570;6.036;2023-07-13T03:57:26;8.02;;;1.90;;
49826;SDS011;35715;51.570;6.036;2023-07-13T03:59:51;5.25;;;1.92;;
49826;SDS011;35715;51.570;6.036;2023-07-13T04:02:17;11.10;;;2.15;;
49826;SDS011;35715;51.570;6.036;2023-07-13T04:04:42;4.30;;;2.90;;
49826;SDS011;35715;51.570;6.036;2023-07-13T04:07:08;7.22;;;2.58;;
49826;SDS011;35715;51.570;6.036;2023-07-13T04:09:34;6.40;;;2.72;;
49826;SDS011;35715;51.570;6.036;2023-07-13T04:12:00;5.00;;;2.58;;
49826;SDS011;35715;51.570;6.036;2023-07-13T04:14:26;5.55;;;2.17;;
49826;SDS011;35715;51.570;6.036;2023-07-13T04:16:51;7.63;;;3.00;;
49826;SDS011;35715;51.570;6.036;2023-07-13T04:19:17;23.85;;;4.22;;
49826;SDS011;35715;51.570;6.036;2023-07-13T04:21:42;7.78;;;2.58;;
49826;SDS011;35715;51.570;6.036;2023-07-13T04:24:08;5.78;;;2.55;;
49826;SDS011;35715;51.570;6.036;2023-07-13T04:26:33;11.10;;;2.42;;
49826;SDS011;35715;51.570;6.036;2023-07-13T04:29:00;10.27;;;2.60;;
49826;SDS011;35715;51.570;6.036;2023-07-13T04:31:28;7.93;;;2.85;;
49826;SDS011;35715;51.570;6.036;2023-07-13T04:33:54;8.43;;;3.53;;
49826;SDS011;35715;51.570;6.036;2023-07-13T04:36:20;8.23;;;2.33;;
49826;SDS011;35715;51.570;6.036;2023-07-13T04:38:45;6.55;;;2.40;;
49826;SDS011;35715;51.570;6.036;2023-07-13T04:41:11;11.02;;;3.00;;
49826;SDS011;35715;51.570;6.036;2023-07-13T04:43:38;14.63;;;3.47;;
49826;SDS011;35715;51.570;6.036;2023-07-13T04:46:05;13.05;;;2.80;;
49826;SDS011;35715;51.570;6.036;2023-07-13T04:48:31;13.05;;;4.20;;
49826;SDS011;35715;51.570;6.036;2023-07-13T04:50:57;9.65;;;2.80;;
49826;SDS011;35715;51.570;6.036;2023-07-13T04:53:24;14.02;;;4.03;;
49826;SDS011;35715;51.570;6.036;2023-07-13T04:55:50;9.18;;;3.63;;
49826;SDS011;35715;51.570;6.036;2023-07-13T04:58:15;8.90;;;3.78;;
49826;SDS011;35715;51.570;6.036;2023-07-13T05:00:41;11.70;;;4.25;;
49826;SDS011;35715;51.570;6.036;2023-07-13T05:03:06;6.72;;;3.15;;
49826;SDS011;35715;51.570;6.036;2023-07-13T05:05:32;7.45;;;3.58;;
49826;SDS011;35715;51.570;6.036;2023-07-13T05:07:57;13.43;;;4.45;;
49826;SDS011;35715;51.570;6.036;2023-07-13T05:10:23;10.40;;;3.45;;
49826;SDS011;35715;51.570;6.036;2023-07-13T05:12:49;13.15;;;4.50;;
49826;SDS011;35715;51.570;6.036;2023-07-13T05:15:15;11.80;;;4.65;;
49826;SDS011;35715;51.570;6.036;2023-07-13T05:17:40;12.65;;;3.83;;
49826;SDS011;35715;51.570;6.036;2023-07-13T05:20:07;12.15;;;5.35;;
49826;SDS011;35715;51.570;6.036;2023-07-13T05:22:33;12.30;;;4.55;;
49826;SDS011;35715;51.570;6.036;2023-07-13T05:25:00;8.50;;;4.68;;
49826;SDS011;35715;51.570;6.036;2023-07-13T05:27:26;15.55;;;5.13;;
49826;SDS011;35715;51.570;6.036;2023-07-13T05:29:51;10.65;;;4.97;;
49826;SDS011;35715;51.570;6.036;2023-07-13T05:32:17;18.13;;;6.35;;
49826;SDS011;35715;51.570;6.036;2023-07-13T05:34:43;14.95;;;5.32;;
49826;SDS011;35715;51.570;6.036;2023-07-13T05:37:09;11.07;;;5.57;;
49826;SDS011;35715;51.570;6.036;2023-07-13T05:39:34;15.95;;;6.22;;
49826;SDS011;35715;51.570;6.036;2023-07-13T05:42:00;11.63;;;5.47;;
49826;SDS011;35715;51.570;6.036;2023-07-13T05:44:26;14.10;;;6.10;;
49826;SDS011;35715;51.570;6.036;2023-07-13T05:46:51;17.63;;;7.47;;
49826;SDS011;35715;51.570;6.036;2023-07-13T05:49:17;15.60;;;5.70;;
49826;SDS011;35715;51.570;6.036;2023-07-13T05:51:42;11.73;;;6.90;;
49826;SDS011;35715;51.570;6.036;2023-07-13T05:54:08;14.15;;;6.32;;
49826;SDS011;35715;51.570;6.036;2023-07-13T05:56:33;17.00;;;7.47;;
49826;SDS011;35715;51.570;6.036;2023-07-13T05:58:58;14.65;;;6.53;;
49826;SDS011;35715;51.570;6.036;2023-07-13T06:01:24;19.38;;;7.80;;
49826;SDS011;35715;51.570;6.036;2023-07-13T06:03:49;14.60;;;7.30;;
49826;SDS011;35715;51.570;6.036;2023-07-13T06:06:15;17.60;;;7.22;;
49826;SDS011;35715;51.570;6.036;2023-07-13T06:08:41;21.80;;;7.25;;
49826;SDS011;35715;51.570;6.036;2023-07-13T06:11:12;19.60;;;7.57;;
49826;SDS011;35715;51.570;6.036;2023-07-13T06:13:43;14.38;;;5.90;;
49826;SDS011;35715;51.570;6.036;2023-07-13T06:16:08;11.15;;;6.80;;
49826;SDS011;35715;51.570;6.036;2023-07-13T06:18:34;14.98;;;7.40;;
49826;SDS011;35715;51.570;6.036;2023-07-13T06:21:22;13.77;;;7.07;;
49826;SDS011;35715;51.570;6.036;2023-07-13T06:23:48;26.83;;;8.95;;
49826;SDS011;35715;51.570;6.036;2023-07-13T06:26:15;14.90;;;7.68;;
49826;SDS011;35715;51.570;6.036;2023-07-13T06:28:41;17.60;;;8.07;;
49826;SDS011;35715;51.570;6.036;2023-07-13T06:31:07;20.75;;;8.75;;
49826;SDS011;35715;51.570;6.036;2023-07-13T06:33:34;12.93;;;6.43;;
49826;SDS011;35715;51.570;6.036;2023-07-13T06:36:01;15.10;;;7.65;;
49826;SDS011;35715;51.570;6.036;2023-07-13T06:38:27;16.52;;;7.32;;
49826;SDS011;35715;51.570;6.036;2023-07-13T06:40:52;15.20;;;7.03;;
49826;SDS011;35715;51.570;6.036;2023-07-13T06:43:18;16.67;;;7.65;;
49826;SDS011;35715;51.570;6.036;2023-07-13T06:45:48;14.20;;;6.40;;
49826;SDS011;35715;51.570;6.036;2023-07-13T06:48:18;11.27;;;6.70;;
49826;SDS011;35715;51.570;6.036;2023-07-13T06:50:44;15.63;;;6.97;;
49826;SDS011;35715;51.570;6.036;2023-07-13T06:53:11;17.42;;;6.95;;
49826;SDS011;35715;51.570;6.036;2023-07-13T06:55:37;17.42;;;7.55;;
49826;SDS011;35715;51.570;6.036;2023-07-13T06:58:03;14.23;;;6.95;;
49826;SDS011;35715;51.570;6.036;2023-07-13T07:00:28;16.00;;;7.10;;
49826;SDS011;35715;51.570;6.036;2023-07-13T07:02:54;14.02;;;6.30;;
49826;SDS011;35715;51.570;6.036;2023-07-13T07:05:19;14.75;;;6.13;;
49826;SDS011;35715;51.570;6.036;2023-07-13T07:07:47;15.38;;;5.75;;
49826;SDS011;35715;51.570;6.036;2023-07-13T07:10:13;17.30;;;6.03;;
49826;SDS011;35715;51.570;6.036;2023-07-13T07:12:38;12.25;;;7.60;;
49826;SDS011;35715;51.570;6.036;2023-07-13T07:15:04;14.10;;;5.55;;
49826;SDS011;35715;51.570;6.036;2023-07-13T07:17:30;12.82;;;6.13;;
49826;SDS011;35715;51.570;6.036;2023-07-13T07:19:55;15.07;;;6.18;;
49826;SDS011;35715;51.570;6.036;2023-07-13T07:22:21;13.65;;;5.20;;
49826;SDS011;35715;51.570;6.036;2023-07-13T07:24:46;10.38;;;5.82;;
49826;SDS011;35715;51.570;6.036;2023-07-13T07:27:11;14.98;;;6.25;;
49826;SDS011;35715;51.570;6.036;2023-07-13T07:29:37;17.42;;;7.45;;
49826;SDS011;35715;51.570;6.036;2023-07-13T07:32:02;10.65;;;5.50;;
49826;SDS011;35715;51.570;6.036;2023-07-13T07:34:29;14.95;;;6.68;;
49826;SDS011;35715;51.570;6.036;2023-07-13T07:36:56;19.80;;;6.30;;
49826;SDS011;35715;51.570;6.036;2023-07-13T07:39:24;18.13;;;6.32;;
49826;SDS011;35715;51.570;6.036;2023-07-13T07:41:49;38.67;;;6.97;;
49826;SDS011;35715;51.570;6.036;2023-07-13T07:44:15;15.27;;;6.63;;
49826;SDS011;35715;51.570;6.036;2023-07-13T07:46:40;17.38;;;6.93;;
49826;SDS011;35715;51.570;6.036;2023-07-13T07:49:06;16.00;;;6.38;;
49826;SDS011;35715;51.570;6.036;2023-07-13T07:51:31;11.48;;;5.55;;
49826;SDS011;35715;51.570;6.036;2023-07-13T07:53:57;17.75;;;8.55;;
49826;SDS011;35715;51.570;6.036;2023-07-13T07:56:22;13.13;;;6.47;;
49826;SDS011;35715;51.570;6.036;2023-07-13T07:58:47;15.30;;;7.15;;
49826;SDS011;35715;51.570;6.036;2023-07-13T08:01:13;11.73;;;7.07;;
49826;SDS011;35715;51.570;6.036;2023-07-13T08:03:38;23.63;;;6.25;;
49826;SDS011;35715;51.570;6.036;2023-07-13T08:06:04;15.23;;;5.20;;
49826;SDS011;35715;51.570;6.036;2023-07-13T08:08:29;19.55;;;9.10;;
49826;SDS011;35715;51.570;6.036;2023-07-13T08:10:55;23.13;;;7.68;;
49826;SDS011;35715;51.570;6.036;2023-07-13T08:13:20;13.10;;;6.78;;
49826;SDS011;35715;51.570;6.036;2023-07-13T08:15:46;16.58;;;6.70;;
49826;SDS011;35715;51.570;6.036;2023-07-13T08:18:12;25.58;;;7.82;;
49826;SDS011;35715;51.570;6.036;2023-07-13T08:20:40;16.63;;;7.22;;
49826;SDS011;35715;51.570;6.036;2023-07-13T08:23:07;18.92;;;7.85;;
49826;SDS011;35715;51.570;6.036;2023-07-13T08:25:34;17.92;;;6.35;;
49826;SDS011;35715;51.570;6.036;2023-07-13T08:28:00;17.35;;;7.05;;
49826;SDS011;35715;51.570;6.036;2023-07-13T08:30:26;12.55;;;6.13;;
49826;SDS011;35715;51.570;6.036;2023-07-13T08:32:51;20.38;;;8.27;;
49826;SDS011;35715;51.570;6.036;2023-07-13T08:35:19;13.55;;;6.35;;
49826;SDS011;35715;51.570;6.036;2023-07-13T08:37:44;18.42;;;6.28;;
49826;SDS011;35715;51.570;6.036;2023-07-13T08:40:10;20.20;;;7.95;;
49826;SDS011;35715;51.570;6.036;2023-07-13T08:42:39;17.55;;;6.93;;
49826;SDS011;35715;51.570;6.036;2023-07-13T08:45:14;20.13;;;8.43;;
49826;SDS011;35715;51.570;6.036;2023-07-13T08:47:44;14.20;;;6.18;;
49826;SDS011;35715;51.570;6.036;2023-07-13T08:50:19;12.95;;;6.00;;
49826;SDS011;35715;51.570;6.036;2023-07-13T08:52:49;12.95;;;5.72;;
49826;SDS011;35715;51.570;6.036;2023-07-13T08:55:37;14.13;;;6.05;;
49826;SDS011;35715;51.570;6.036;2023-07-13T08:58:21;14.32;;;5.97;;
49826;SDS011;35715;51.570;6.036;2023-07-13T09:00:59;9.95;;;4.72;;
49826;SDS011;35715;51.570;6.036;2023-07-13T09:04:21;39.95;;;7.40;;
49826;SDS011;35715;51.570;6.036;2023-07-13T09:06:50;14.00;;;5.88;;
49826;SDS011;35715;51.570;6.036;2023-07-13T09:09:44;11.52;;;4.65;;
49826;SDS011;35715;51.570;6.036;2023-07-13T09:14:52;11.50;;;4.68;;
49826;SDS011;35715;51.570;6.036;2023-07-13T09:17:22;20.33;;;5.55;;
49826;SDS011;35715;51.570;6.036;2023-07-13T09:20:04;10.43;;;3.97;;
49826;SDS011;35715;51.570;6.036;2023-07-13T09:23:01;9.45;;;4.00;;
49826;SDS011;35715;51.570;6.036;2023-07-13T09:25:33;11.77;;;4.35;;
49826;SDS011;35715;51.570;6.036;2023-07-13T09:28:01;19.33;;;5.30;;
49826;SDS011;35715;51.570;6.036;2023-07-13T09:33:28;5.78;;;3.08;;
49826;SDS011;35715;51.570;6.036;2023-07-13T09:35:55;10.50;;;3.22;;
49826;SDS011;35715;51.570;6.036;2023-07-13T09:38:23;11.30;;;3.40;;
49826;SDS011;35715;51.570;6.036;2023-07-13T09:44:08;12.05;;;4.10;;
49826;SDS011;35715;51.570;6.036;2023-07-13T09:49:04;5.68;;;2.67;;
49826;SDS011;35715;51.570;6.036;2023-07-13T09:51:30;13.35;;;3.92;;
49826;SDS011;35715;51.570;6.036;2023-07-13T09:53:55;11.65;;;3.47;;
49826;SDS011;35715;51.570;6.036;2023-07-13T09:56:25;6.53;;;3.28;;
49826;SDS011;35715;51.570;6.036;2023-07-13T09:58:53;9.48;;;3.63;;
49826;SDS011;35715;51.570;6.036;2023-07-13T10:01:32;10.52;;;3.53;;
49826;SDS011;35715;51.570;6.036;2023-07-13T10:03:59;7.28;;;3.20;;
49826;SDS011;35715;51.570;6.036;2023-07-13T10:06:25;12.52;;;3.42;;
49826;SDS011;35715;51.570;6.036;2023-07-13T10:08:51;10.13;;;3.92;;
49826;SDS011;35715;51.570;6.036;2023-07-13T10:11:22;14.00;;;3.92;;
49826;SDS011;35715;51.570;6.036;2023-07-13T10:13:54;9.68;;;3.45;;
49826;SDS011;35715;51.570;6.036;2023-07-13T10:16:34;8.60;;;3.22;;
49826;SDS011;35715;51.570;6.036;2023-07-13T10:19:45;5.22;;;2.72;;
49826;SDS011;35715;51.570;6.036;2023-07-13T10:22:01;4.68;;;1.95;;
49826;SDS011;35715;51.570;6.036;2023-07-13T10:24:35;8.55;;;2.92;;
49826;SDS011;35715;51.570;6.036;2023-07-13T10:29:44;7.13;;;2.80;;
49826;SDS011;35715;51.570;6.036;2023-07-13T10:32:11;7.03;;;2.55;;
49826;SDS011;35715;51.570;6.036;2023-07-13T10:34:38;11.30;;;3.30;;
49826;SDS011;35715;51.570;6.036;2023-07-13T10:37:18;4.55;;;2.40;;
49826;SDS011;35715;51.570;6.036;2023-07-13T10:39:46;7.35;;;2.95;;
49826;SDS011;35715;51.570;6.036;2023-07-13T10:42:15;4.50;;;2.83;;
49826;SDS011;35715;51.570;6.036;2023-07-13T10:44:49;7.28;;;2.40;;
49826;SDS011;35715;51.570;6.036;2023-07-13T10:47:15;10.43;;;3.67;;
49826;SDS011;35715;51.570;6.036;2023-07-13T10:49:43;9.95;;;2.47;;
49826;SDS011;35715;51.570;6.036;2023-07-13T10:55:02;7.18;;;2.92;;
49826;SDS011;35715;51.570;6.036;2023-07-13T10:57:28;9.60;;;2.80;;
49826;SDS011;35715;51.570;6.036;2023-07-13T11:02:30;13.23;;;3.53;;
49826;SDS011;35715;51.570;6.036;2023-07-13T11:04:56;11.40;;;3.72;;
49826;SDS011;35715;51.570;6.036;2023-07-13T11:07:28;4.75;;;2.28;;
49826;SDS011;35715;51.570;6.036;2023-07-13T11:09:58;5.80;;;2.60;;
49826;SDS011;35715;51.570;6.036;2023-07-13T11:15:32;6.03;;;2.78;;
49826;SDS011;35715;51.570;6.036;2023-07-13T11:18:20;9.70;;;2.65;;
49826;SDS011;35715;51.570;6.036;2023-07-13T11:20:48;7.00;;;2.78;;
49826;SDS011;35715;51.570;6.036;2023-07-13T11:23:17;4.15;;;2.10;;
49826;SDS011;35715;51.570;6.036;2023-07-13T11:25:46;6.95;;;2.05;;
49826;SDS011;35715;51.570;6.036;2023-07-13T11:31:00;5.40;;;2.05;;
49826;SDS011;35715;51.570;6.036;2023-07-13T11:33:24;4.63;;;2.60;;
49826;SDS011;35715;51.570;6.036;2023-07-13T11:36:15;5.28;;;2.22;;
49826;SDS011;35715;51.570;6.036;2023-07-13T11:41:26;4.63;;;2.17;;
49826;SDS011;35715;51.570;6.036;2023-07-13T11:44:01;5.18;;;2.67;;
49826;SDS011;35715;51.570;6.036;2023-07-13T11:46:30;7.57;;;2.45;;
49826;SDS011;35715;51.570;6.036;2023-07-13T11:48:55;7.97;;;2.70;;
49826;SDS011;35715;51.570;6.036;2023-07-13T11:51:22;2.88;;;1.52;;
49826;SDS011;35715;51.570;6.036;2023-07-13T11:53:53;11.82;;;3.22;;
49826;SDS011;35715;51.570;6.036;2023-07-13T11:56:20;6.03;;;2.88;;
49826;SDS011;35715;51.570;6.036;2023-07-13T11:58:53;7.75;;;2.53;;
49826;SDS011;35715;51.570;6.036;2023-07-13T12:01:22;4.88;;;2.35;;
49826;SDS011;35715;51.570;6.036;2023-07-13T12:03:54;3.72;;;2.05;;
49826;SDS011;35715;51.570;6.036;2023-07-13T12:06:30;8.73;;;2.17;;
49826;SDS011;35715;51.570;6.036;2023-07-13T12:09:00;7.97;;;2.85;;
49826;SDS011;35715;51.570;6.036;2023-07-13T12:11:28;6.28;;;2.53;;
49826;SDS011;35715;51.570;6.036;2023-07-13T12:13:55;5.40;;;1.70;;
49826;SDS011;35715;51.570;6.036;2023-07-13T12:16:30;4.57;;;1.90;;
49826;SDS011;35715;51.570;6.036;2023-07-13T12:18:59;5.88;;;2.33;;
49826;SDS011;35715;51.570;6.036;2023-07-13T12:21:33;8.23;;;2.70;;
49826;SDS011;35715;51.570;6.036;2023-07-13T12:24:02;3.95;;;2.30;;
49826;SDS011;35715;51.570;6.036;2023-07-13T12:26:29;6.90;;;2.85;;
49826;SDS011;35715;51.570;6.036;2023-07-13T12:28:56;5.68;;;2.55;;
49826;SDS011;35715;51.570;6.036;2023-07-13T12:33:59;5.50;;;3.10;;
49826;SDS011;35715;51.570;6.036;2023-07-13T12:36:29;8.68;;;3.45;;
49826;SDS011;35715;51.570;6.036;2023-07-13T12:41:28;6.97;;;3.92;;
49826;SDS011;35715;51.570;6.036;2023-07-13T12:43:54;5.20;;;3.05;;
49826;SDS011;35715;51.570;6.036;2023-07-13T12:46:20;14.57;;;4.68;;
49826;SDS011;35715;51.570;6.036;2023-07-13T12:48:50;9.05;;;3.97;;
49826;SDS011;35715;51.570;6.036;2023-07-13T12:51:20;8.00;;;4.45;;
49826;SDS011;35715;51.570;6.036;2023-07-13T12:53:48;6.72;;;4.35;;
49826;SDS011;35715;51.570;6.036;2023-07-13T12:56:20;6.28;;;4.25;;
49826;SDS011;35715;51.570;6.036;2023-07-13T12:58:48;8.30;;;4.75;;
49826;SDS011;35715;51.570;6.036;2023-07-13T13:01:19;13.52;;;7.07;;
49826;SDS011;35715;51.570;6.036;2023-07-13T13:03:49;10.23;;;4.90;;
49826;SDS011;35715;51.570;6.036;2023-07-13T13:06:24;5.82;;;4.50;;
49826;SDS011;35715;51.570;6.036;2023-07-13T13:08:53;5.70;;;4.95;;
49826;SDS011;35715;51.570;6.036;2023-07-13T13:11:21;6.88;;;5.65;;
49826;SDS011;35715;51.570;6.036;2023-07-13T13:13:48;15.88;;;7.32;;
49826;SDS011;35715;51.570;6.036;2023-07-13T13:16:18;9.25;;;5.70;;
49826;SDS011;35715;51.570;6.036;2023-07-13T13:18:47;9.00;;;5.15;;
49826;SDS011;35715;51.570;6.036;2023-07-13T13:21:12;7.57;;;4.65;;
49826;SDS011;35715;51.570;6.036;2023-07-13T13:23:38;8.25;;;7.32;;
49826;SDS011;35715;51.570;6.036;2023-07-13T13:26:05;10.00;;;7.35;;
49826;SDS011;35715;51.570;6.036;2023-07-13T13:28:34;10.10;;;5.22;;
49826;SDS011;35715;51.570;6.036;2023-07-13T13:30:59;10.00;;;4.72;;
49826;SDS011;35715;51.570;6.036;2023-07-13T13:33:25;5.72;;;4.30;;
49826;SDS011;35715;51.570;6.036;2023-07-13T13:35:50;9.48;;;4.82;;
49826;SDS011;35715;51.570;6.036;2023-07-13T13:38:23;5.28;;;4.25;;
49826;SDS011;35715;51.570;6.036;2023-07-13T13:40:51;7.85;;;5.18;;
49826;SDS011;35715;51.570;6.036;2023-07-13T13:43:24;8.75;;;4.82;;
49826;SDS011;35715;51.570;6.036;2023-07-13T13:45:52;9.73;;;4.88;;
49826;SDS011;35715;51.570;6.036;2023-07-13T13:48:29;6.03;;;5.22;;
49826;SDS011;35715;51.570;6.036;2023-07-13T13:51:01;5.18;;;4.40;;
49826;SDS011;35715;51.570;6.036;2023-07-13T13:53:37;7.78;;;4.78;;
49826;SDS011;35715;51.570;6.036;2023-07-13T13:56:04;7.50;;;5.90;;
49826;SDS011;35715;51.570;6.036;2023-07-13T13:58:30;7.13;;;4.93;;
49826;SDS011;35715;51.570;6.036;2023-07-13T14:00:56;9.98;;;5.55;;
49826;SDS011;35715;51.570;6.036;2023-07-13T14:03:21;9.27;;;5.05;;
49826;SDS011;35715;51.570;6.036;2023-07-13T14:05:47;4.55;;;4.15;;
49826;SDS011;35715;51.570;6.036;2023-07-13T14:08:14;3.60;;;2.60;;
49826;SDS011;35715;51.570;6.036;2023-07-13T14:10:41;3.72;;;3.22;;
49826;SDS011;35715;51.570;6.036;2023-07-13T14:13:13;3.58;;;3.28;;
49826;SDS011;35715;51.570;6.036;2023-07-13T14:15:43;7.18;;;3.50;;
49826;SDS011;35715;51.570;6.036;2023-07-13T14:18:09;4.68;;;2.63;;
49826;SDS011;35715;51.570;6.036;2023-07-13T14:20:36;6.43;;;3.28;;
49826;SDS011;35715;51.570;6.036;2023-07-13T14:23:02;8.48;;;3.28;;
49826;SDS011;35715;51.570;6.036;2023-07-13T14:25:27;5.13;;;2.40;;
49826;SDS011;35715;51.570;6.036;2023-07-13T14:27:54;11.00;;;3.13;;
49826;SDS011;35715;51.570;6.036;2023-07-13T14:30:24;7.20;;;3.50;;
49826;SDS011;35715;51.570;6.036;2023-07-13T14:32:50;4.80;;;2.97;;
49826;SDS011;35715;51.570;6.036;2023-07-13T14:35:17;11.10;;;3.35;;
49826;SDS011;35715;51.570;6.036;2023-07-13T14:37:45;6.32;;;3.35;;
49826;SDS011;35715;51.570;6.036;2023-07-13T14:42:37;5.82;;;3.60;;
49826;SDS011;35715;51.570;6.036;2023-07-13T14:45:03;5.10;;;3.08;;
49826;SDS011;35715;51.570;6.036;2023-07-13T14:47:28;7.63;;;4.07;;
49826;SDS011;35715;51.570;6.036;2023-07-13T14:49:54;4.63;;;2.90;;
49826;SDS011;35715;51.570;6.036;2023-07-13T14:52:20;10.57;;;4.00;;
49826;SDS011;35715;51.570;6.036;2023-07-13T14:54:47;8.13;;;3.90;;
49826;SDS011;35715;51.570;6.036;2023-07-13T14:57:14;4.78;;;4.05;;
49826;SDS011;35715;51.570;6.036;2023-07-13T14:59:44;4.38;;;3.30;;
49826;SDS011;35715;51.570;6.036;2023-07-13T15:04:47;5.70;;;3.55;;
49826;SDS011;35715;51.570;6.036;2023-07-13T15:07:12;7.85;;;4.20;;
49826;SDS011;35715;51.570;6.036;2023-07-13T15:09:40;4.15;;;3.72;;
49826;SDS011;35715;51.570;6.036;2023-07-13T15:12:06;4.07;;;3.35;;
49826;SDS011;35715;51.570;6.036;2023-07-13T15:14:32;2.80;;;2.08;;
49826;SDS011;35715;51.570;6.036;2023-07-13T15:16:58;12.85;;;3.65;;
49826;SDS011;35715;51.570;6.036;2023-07-13T15:19:24;4.15;;;3.40;;
49826;SDS011;35715;51.570;6.036;2023-07-13T15:21:51;2.65;;;2.45;;
49826;SDS011;35715;51.570;6.036;2023-07-13T15:24:17;8.65;;;4.13;;
49826;SDS011;35715;51.570;6.036;2023-07-13T15:26:43;4.65;;;2.60;;